OIIE

Tehran/Imam Khomeini International Airport

Airport
ICAO code
OIIE
IATA Code
IKA
Summary
ICAO Region
MID
ICAO Territory
Location

Salmanabad, Tehran Province

Serving
Tehran
Elevation
3305 ft
Coordinates
35° 24' 60" N , 51° 9' 11" E
KCC
Airport RE
Hot and High Operations
Metar
Observation
OIIE 070300Z 31004KT 6000 FEW040 OVC090 04/02 Q1023
Station
Tehran Imam Khomeini International Airport
Date/Time
2022-12-07 03:00:00
Wind direction
310°
Wind speed
04 kts
Lowest cloud amount
few clouds
Temperature
4°C
Dew point
2°C
Humidity
86%
QNH
1023 hPa
Weather condition
n/a

Imam Khomeini International Airport is located in Tehran, Iran. The airport is located about 30 km southwest of the city near the localities of Robat-Karim and Eslamshahr.

Climatology

Cold Semi-arid climate (Köppen climate classification BSk).

Runways

Designator Length Width Surface Rops
11L/29R 4198 45 ASP Yes/Yes
11R/29L 4249 45 ASP Yes/Yes

SKYbrary Partners:

Safety knowledge contributed by: